Aviation Digital Data Service (ADDS)

Output produced by TAFs form (2311 UTC 15 July 2018)
found at http://www.aviationweather.gov/adds/tafs/
 
METAR text: RJFT 152300Z 22004KT 170V260 7000 NSC 28/25 Q1014
Conditions at: RJFT (KUMAMOTO(CIV/JAS, JP) observed 2300 UTC 15 July 2018
Temperature: 28.0°C (82°F)
Dewpoint: 25.0°C (77°F) [RH = 84%]
Pressure (altimeter): 29.94 inches Hg (1014.0 mb)
Winds: from the SW (220 degrees) at 5 MPH (4 knots; 2.1 m/s)
Visibility: 4 miles (7 km)
Ceiling: at least 12,000 feet AGL
Clouds: sky clear below 12,000 feet AGL
Weather: no significant weather observed at this time

Forecast for: RJFT (KUMAMOTO(CIV/JAS, JP)
Text: TAF RJFT 151710Z 1518/1700 25005KT 9999 FEW030 SCT040
Forecast period: 1800 UTC 15 July 2018 to 0000 UTC 17 July 2018
Forecast type: FROM: standard forecast or significant change
Winds: from the WSW (250 degrees) at 6 MPH (5 knots; 2.6 m/s)
Visibility: 6 or more miles (10+ km)
Clouds: few clouds at 3000 feet AGL
scattered clouds at 4000 feet AGL
Weather: no significant weather forecast for this period